sensor_id;sensor_type;location;lat;lon;timestamp;temperature;humidity
1405;DHT22;697;51.114;6.542;2024-03-22T00:00:39;13.70;99.90
1405;DHT22;697;51.114;6.542;2024-03-22T00:03:06;13.80;99.90
1405;DHT22;697;51.114;6.542;2024-03-22T00:05:32;13.70;99.90
1405;DHT22;697;51.114;6.542;2024-03-22T00:07:59;13.80;99.90
1405;DHT22;697;51.114;6.542;2024-03-22T00:10:25;13.70;99.90
1405;DHT22;697;51.114;6.542;2024-03-22T00:12:52;13.80;99.90
1405;DHT22;697;51.114;6.542;2024-03-22T00:15:19;13.80;99.90
1405;DHT22;697;51.114;6.542;2024-03-22T00:17:46;13.80;99.90
1405;DHT22;697;51.114;6.542;2024-03-22T00:20:11;13.80;99.90
1405;DHT22;697;51.114;6.542;2024-03-22T00:22:38;13.80;99.90
1405;DHT22;697;51.114;6.542;2024-03-22T00:25:05;13.80;99.90
1405;DHT22;697;51.114;6.542;2024-03-22T00:27:32;13.80;99.90
1405;DHT22;697;51.114;6.542;2024-03-22T00:29:58;13.80;99.90
1405;DHT22;697;51.114;6.542;2024-03-22T00:32:26;13.80;99.90
1405;DHT22;697;51.114;6.542;2024-03-22T00:34:52;13.80;99.90
1405;DHT22;697;51.114;6.542;2024-03-22T00:37:18;13.80;99.90
1405;DHT22;697;51.114;6.542;2024-03-22T00:39:44;13.80;99.90
1405;DHT22;697;51.114;6.542;2024-03-22T00:42:11;13.80;99.90
1405;DHT22;697;51.114;6.542;2024-03-22T00:44:37;13.90;99.90
1405;DHT22;697;51.114;6.542;2024-03-22T00:47:04;13.90;99.90
1405;DHT22;697;51.114;6.542;2024-03-22T00:49:32;13.90;99.90
1405;DHT22;697;51.114;6.542;2024-03-22T00:52:00;13.80;99.90
1405;DHT22;697;51.114;6.542;2024-03-22T00:54:26;13.80;99.90
1405;DHT22;697;51.114;6.542;2024-03-22T00:56:52;13.80;99.90
1405;DHT22;697;51.114;6.542;2024-03-22T00:59:18;13.80;99.90
1405;DHT22;697;51.114;6.542;2024-03-22T01:01:45;13.80;99.90
1405;DHT22;697;51.114;6.542;2024-03-22T01:04:11;13.80;99.90
1405;DHT22;697;51.114;6.542;2024-03-22T01:06:39;13.80;99.90
1405;DHT22;697;51.114;6.542;2024-03-22T01:09:05;13.80;99.90
1405;DHT22;697;51.114;6.542;2024-03-22T01:11:32;13.80;99.90
1405;DHT22;697;51.114;6.542;2024-03-22T01:13:58;13.80;99.90
1405;DHT22;697;51.114;6.542;2024-03-22T01:16:25;13.80;99.90
1405;DHT22;697;51.114;6.542;2024-03-22T01:18:51;13.80;99.90
1405;DHT22;697;51.114;6.542;2024-03-22T01:21:18;13.80;99.90
1405;DHT22;697;51.114;6.542;2024-03-22T01:23:45;13.80;99.90
1405;DHT22;697;51.114;6.542;2024-03-22T01:26:12;13.80;99.90
1405;DHT22;697;51.114;6.542;2024-03-22T01:28:38;13.80;99.90
1405;DHT22;697;51.114;6.542;2024-03-22T01:31:04;13.80;99.90
1405;DHT22;697;51.114;6.542;2024-03-22T01:33:30;13.80;99.90
1405;DHT22;697;51.114;6.542;2024-03-22T01:35:57;13.80;99.90
1405;DHT22;697;51.114;6.542;2024-03-22T01:38:23;13.80;99.90
1405;DHT22;697;51.114;6.542;2024-03-22T01:40:51;13.80;99.90
1405;DHT22;697;51.114;6.542;2024-03-22T01:43:17;13.80;99.90
1405;DHT22;697;51.114;6.542;2024-03-22T01:45:44;13.80;99.90
1405;DHT22;697;51.114;6.542;2024-03-22T01:48:11;13.80;99.90
1405;DHT22;697;51.114;6.542;2024-03-22T01:50:38;13.80;99.90
1405;DHT22;697;51.114;6.542;2024-03-22T01:53:04;13.80;99.90
1405;DHT22;697;51.114;6.542;2024-03-22T01:55:31;13.80;99.90
1405;DHT22;697;51.114;6.542;2024-03-22T01:58:00;13.80;99.90
1405;DHT22;697;51.114;6.542;2024-03-22T02:00:25;13.80;99.90
1405;DHT22;697;51.114;6.542;2024-03-22T02:02:52;13.80;99.90
1405;DHT22;697;51.114;6.542;2024-03-22T02:05:19;13.80;99.90
1405;DHT22;697;51.114;6.542;2024-03-22T02:07:46;13.70;99.90
1405;DHT22;697;51.114;6.542;2024-03-22T02:10:13;13.70;99.90
1405;DHT22;697;51.114;6.542;2024-03-22T02:12:40;13.70;99.90
1405;DHT22;697;51.114;6.542;2024-03-22T02:15:09;13.70;99.90
1405;DHT22;697;51.114;6.542;2024-03-22T02:17:36;13.70;99.90
1405;DHT22;697;51.114;6.542;2024-03-22T02:20:02;13.70;99.90
1405;DHT22;697;51.114;6.542;2024-03-22T02:22:30;13.70;99.90
1405;DHT22;697;51.114;6.542;2024-03-22T02:24:58;13.70;99.90
1405;DHT22;697;51.114;6.542;2024-03-22T02:27:25;13.70;99.90
1405;DHT22;697;51.114;6.542;2024-03-22T02:29:51;13.70;99.90
1405;DHT22;697;51.114;6.542;2024-03-22T02:32:18;13.60;99.90
1405;DHT22;697;51.114;6.542;2024-03-22T02:34:43;13.70;99.90
1405;DHT22;697;51.114;6.542;2024-03-22T02:37:10;13.70;99.90
1405;DHT22;697;51.114;6.542;2024-03-22T02:39:36;13.70;99.90
1405;DHT22;697;51.114;6.542;2024-03-22T02:42:05;13.70;99.90
1405;DHT22;697;51.114;6.542;2024-03-22T02:44:30;13.80;99.90
1405;DHT22;697;51.114;6.542;2024-03-22T02:46:57;13.80;99.90
1405;DHT22;697;51.114;6.542;2024-03-22T02:49:24;13.80;99.90
1405;DHT22;697;51.114;6.542;2024-03-22T02:51:51;13.80;99.90
1405;DHT22;697;51.114;6.542;2024-03-22T02:54:17;13.80;99.90
1405;DHT22;697;51.114;6.542;2024-03-22T02:56:44;13.80;99.90
1405;DHT22;697;51.114;6.542;2024-03-22T02:59:11;13.80;99.90
1405;DHT22;697;51.114;6.542;2024-03-22T03:01:38;13.80;99.90
1405;DHT22;697;51.114;6.542;2024-03-22T03:04:04;13.80;99.90
1405;DHT22;697;51.114;6.542;2024-03-22T03:06:31;13.80;99.90
1405;DHT22;697;51.114;6.542;2024-03-22T03:08:56;13.80;99.90
1405;DHT22;697;51.114;6.542;2024-03-22T03:11:23;13.80;99.90
1405;DHT22;697;51.114;6.542;2024-03-22T03:13:49;13.80;99.90
1405;DHT22;697;51.114;6.542;2024-03-22T03:16:17;13.70;99.90
1405;DHT22;697;51.114;6.542;2024-03-22T03:18:43;13.80;99.90
1405;DHT22;697;51.114;6.542;2024-03-22T03:21:10;13.80;99.90
1405;DHT22;697;51.114;6.542;2024-03-22T03:23:36;13.70;99.90
1405;DHT22;697;51.114;6.542;2024-03-22T03:26:03;13.70;99.90
1405;DHT22;697;51.114;6.542;2024-03-22T03:28:29;13.70;99.90
1405;DHT22;697;51.114;6.542;2024-03-22T03:30:55;13.70;99.90
1405;DHT22;697;51.114;6.542;2024-03-22T03:33:23;13.70;99.90
1405;DHT22;697;51.114;6.542;2024-03-22T03:35:49;13.70;99.90
1405;DHT22;697;51.114;6.542;2024-03-22T03:38:15;13.60;99.90
1405;DHT22;697;51.114;6.542;2024-03-22T03:40:42;13.60;99.90
1405;DHT22;697;51.114;6.542;2024-03-22T03:43:08;13.60;99.90
1405;DHT22;697;51.114;6.542;2024-03-22T03:45:36;13.60;99.90
1405;DHT22;697;51.114;6.542;2024-03-22T03:48:02;13.60;99.90
1405;DHT22;697;51.114;6.542;2024-03-22T03:50:30;13.60;99.90
1405;DHT22;697;51.114;6.542;2024-03-22T03:52:56;13.60;99.90
1405;DHT22;697;51.114;6.542;2024-03-22T03:55:23;13.60;99.90
1405;DHT22;697;51.114;6.542;2024-03-22T03:57:50;13.60;99.90
1405;DHT22;697;51.114;6.542;2024-03-22T04:00:18;13.50;99.90
1405;DHT22;697;51.114;6.542;2024-03-22T04:02:44;13.50;99.90
1405;DHT22;697;51.114;6.542;2024-03-22T04:05:11;13.50;99.90
1405;DHT22;697;51.114;6.542;2024-03-22T04:07:38;13.50;99.90
1405;DHT22;697;51.114;6.542;2024-03-22T04:10:08;13.50;99.90
1405;DHT22;697;51.114;6.542;2024-03-22T04:12:34;13.50;99.90
1405;DHT22;697;51.114;6.542;2024-03-22T04:15:01;13.50;99.90
1405;DHT22;697;51.114;6.542;2024-03-22T04:17:27;13.50;99.90
1405;DHT22;697;51.114;6.542;2024-03-22T04:19:54;13.50;99.90
1405;DHT22;697;51.114;6.542;2024-03-22T04:22:20;13.40;99.90
1405;DHT22;697;51.114;6.542;2024-03-22T04:24:48;13.40;99.90
1405;DHT22;697;51.114;6.542;2024-03-22T04:27:14;13.40;99.90
1405;DHT22;697;51.114;6.542;2024-03-22T04:29:41;13.40;99.90
1405;DHT22;697;51.114;6.542;2024-03-22T04:32:07;13.40;99.90
1405;DHT22;697;51.114;6.542;2024-03-22T04:34:33;13.40;99.90
1405;DHT22;697;51.114;6.542;2024-03-22T04:36:59;13.30;99.90
1405;DHT22;697;51.114;6.542;2024-03-22T04:39:26;13.30;99.90
1405;DHT22;697;51.114;6.542;2024-03-22T04:41:54;13.40;99.90
1405;DHT22;697;51.114;6.542;2024-03-22T04:44:20;13.40;99.90
1405;DHT22;697;51.114;6.542;2024-03-22T04:46:47;13.40;99.90
1405;DHT22;697;51.114;6.542;2024-03-22T04:49:14;13.40;99.90
1405;DHT22;697;51.114;6.542;2024-03-22T04:51:40;13.40;99.90
1405;DHT22;697;51.114;6.542;2024-03-22T04:54:07;13.40;99.90
1405;DHT22;697;51.114;6.542;2024-03-22T04:56:33;13.40;99.90
1405;DHT22;697;51.114;6.542;2024-03-22T04:59:01;13.40;99.90
1405;DHT22;697;51.114;6.542;2024-03-22T05:01:28;13.40;99.90
1405;DHT22;697;51.114;6.542;2024-03-22T05:03:55;13.50;99.90
1405;DHT22;697;51.114;6.542;2024-03-22T05:06:21;13.50;99.90
1405;DHT22;697;51.114;6.542;2024-03-22T05:08:48;13.50;99.90
1405;DHT22;697;51.114;6.542;2024-03-22T05:11:13;13.50;99.90
1405;DHT22;697;51.114;6.542;2024-03-22T05:13:40;13.50;99.90
1405;DHT22;697;51.114;6.542;2024-03-22T05:16:08;13.50;99.90
1405;DHT22;697;51.114;6.542;2024-03-22T05:18:36;13.50;99.90
1405;DHT22;697;51.114;6.542;2024-03-22T05:21:02;13.60;99.90
1405;DHT22;697;51.114;6.542;2024-03-22T05:23:29;13.60;99.90
1405;DHT22;697;51.114;6.542;2024-03-22T05:25:55;13.60;99.90
1405;DHT22;697;51.114;6.542;2024-03-22T05:28:22;13.60;99.90
1405;DHT22;697;51.114;6.542;2024-03-22T05:30:48;13.60;99.90
1405;DHT22;697;51.114;6.542;2024-03-22T05:33:16;13.60;99.90
1405;DHT22;697;51.114;6.542;2024-03-22T05:35:42;13.60;99.90
1405;DHT22;697;51.114;6.542;2024-03-22T05:38:09;13.60;99.90
1405;DHT22;697;51.114;6.542;2024-03-22T05:40:36;13.60;99.90
1405;DHT22;697;51.114;6.542;2024-03-22T05:43:04;13.60;99.90
1405;DHT22;697;51.114;6.542;2024-03-22T05:45:30;13.70;99.90
1405;DHT22;697;51.114;6.542;2024-03-22T05:47:57;13.70;99.90
1405;DHT22;697;51.114;6.542;2024-03-22T05:50:24;13.60;99.90
1405;DHT22;697;51.114;6.542;2024-03-22T05:52:51;13.70;99.90
1405;DHT22;697;51.114;6.542;2024-03-22T05:55:17;13.70;99.90
1405;DHT22;697;51.114;6.542;2024-03-22T05:57:43;13.70;99.90
1405;DHT22;697;51.114;6.542;2024-03-22T06:00:10;13.70;99.90
1405;DHT22;697;51.114;6.542;2024-03-22T06:02:38;13.70;99.90
1405;DHT22;697;51.114;6.542;2024-03-22T06:05:05;13.80;99.90
1405;DHT22;697;51.114;6.542;2024-03-22T06:07:33;13.80;99.90
1405;DHT22;697;51.114;6.542;2024-03-22T06:10:07;13.80;99.90
1405;DHT22;697;51.114;6.542;2024-03-22T06:12:35;13.90;99.90
1405;DHT22;697;51.114;6.542;2024-03-22T06:15:01;13.90;99.90
1405;DHT22;697;51.114;6.542;2024-03-22T06:17:31;13.90;99.90
1405;DHT22;697;51.114;6.542;2024-03-22T06:19:58;13.90;99.90
1405;DHT22;697;51.114;6.542;2024-03-22T06:22:25;13.90;99.90
1405;DHT22;697;51.114;6.542;2024-03-22T06:24:52;14.00;99.90
1405;DHT22;697;51.114;6.542;2024-03-22T06:27:19;14.00;99.90
1405;DHT22;697;51.114;6.542;2024-03-22T06:29:45;14.00;99.90
1405;DHT22;697;51.114;6.542;2024-03-22T06:32:12;14.00;99.90
1405;DHT22;697;51.114;6.542;2024-03-22T06:34:38;14.00;99.90
1405;DHT22;697;51.114;6.542;2024-03-22T06:37:05;14.10;99.90
1405;DHT22;697;51.114;6.542;2024-03-22T06:39:31;14.10;99.90
1405;DHT22;697;51.114;6.542;2024-03-22T06:41:59;14.20;99.90
1405;DHT22;697;51.114;6.542;2024-03-22T06:44:25;14.30;99.90
1405;DHT22;697;51.114;6.542;2024-03-22T06:46:52;14.30;99.90
1405;DHT22;697;51.114;6.542;2024-03-22T06:49:18;14.40;99.90
1405;DHT22;697;51.114;6.542;2024-03-22T06:51:45;14.40;99.90
1405;DHT22;697;51.114;6.542;2024-03-22T06:54:11;14.50;99.90
1405;DHT22;697;51.114;6.542;2024-03-22T06:56:38;14.40;99.90
1405;DHT22;697;51.114;6.542;2024-03-22T06:59:05;14.50;99.90
1405;DHT22;697;51.114;6.542;2024-03-22T07:01:32;14.50;99.90
1405;DHT22;697;51.114;6.542;2024-03-22T07:03:58;14.50;99.90
1405;DHT22;697;51.114;6.542;2024-03-22T07:06:24;14.60;99.90
1405;DHT22;697;51.114;6.542;2024-03-22T07:08:50;14.60;99.90
1405;DHT22;697;51.114;6.542;2024-03-22T07:11:17;14.70;99.90
1405;DHT22;697;51.114;6.542;2024-03-22T07:13:43;14.60;99.90
1405;DHT22;697;51.114;6.542;2024-03-22T07:16:11;14.70;99.90
1405;DHT22;697;51.114;6.542;2024-03-22T07:18:37;14.70;99.90
1405;DHT22;697;51.114;6.542;2024-03-22T07:21:04;14.80;99.90
1405;DHT22;697;51.114;6.542;2024-03-22T07:23:30;14.80;99.90
1405;DHT22;697;51.114;6.542;2024-03-22T07:25:57;14.80;99.90
1405;DHT22;697;51.114;6.542;2024-03-22T07:28:23;14.80;99.90
1405;DHT22;697;51.114;6.542;2024-03-22T07:30:50;14.90;99.90
1405;DHT22;697;51.114;6.542;2024-03-22T07:33:17;14.90;99.90
1405;DHT22;697;51.114;6.542;2024-03-22T07:35:44;14.90;99.90
1405;DHT22;697;51.114;6.542;2024-03-22T07:38:10;14.90;99.90
1405;DHT22;697;51.114;6.542;2024-03-22T07:40:37;15.00;99.90
1405;DHT22;697;51.114;6.542;2024-03-22T07:43:03;15.00;99.90
1405;DHT22;697;51.114;6.542;2024-03-22T07:45:32;15.00;99.90
1405;DHT22;697;51.114;6.542;2024-03-22T07:47:58;15.00;99.90
1405;DHT22;697;51.114;6.542;2024-03-22T07:50:26;15.00;99.90
1405;DHT22;697;51.114;6.542;2024-03-22T07:52:52;15.00;99.90
1405;DHT22;697;51.114;6.542;2024-03-22T07:55:20;15.10;99.90
1405;DHT22;697;51.114;6.542;2024-03-22T07:57:45;15.00;99.90
1405;DHT22;697;51.114;6.542;2024-03-22T08:00:13;15.10;99.90
1405;DHT22;697;51.114;6.542;2024-03-22T08:02:39;15.10;99.90
1405;DHT22;697;51.114;6.542;2024-03-22T08:05:06;15.20;99.90
1405;DHT22;697;51.114;6.542;2024-03-22T08:07:34;15.10;99.90
1405;DHT22;697;51.114;6.542;2024-03-22T08:10:01;15.10;99.90
1405;DHT22;697;51.114;6.542;2024-03-22T08:12:27;15.10;99.90
1405;DHT22;697;51.114;6.542;2024-03-22T08:14:54;15.00;99.90
1405;DHT22;697;51.114;6.542;2024-03-22T08:17:21;15.00;99.90
1405;DHT22;697;51.114;6.542;2024-03-22T08:19:48;15.00;99.90
1405;DHT22;697;51.114;6.542;2024-03-22T08:22:14;15.10;99.90
1405;DHT22;697;51.114;6.542;2024-03-22T08:24:42;15.10;99.90
1405;DHT22;697;51.114;6.542;2024-03-22T08:27:08;15.20;99.90
1405;DHT22;697;51.114;6.542;2024-03-22T08:29:34;15.20;99.90
1405;DHT22;697;51.114;6.542;2024-03-22T08:32:00;15.20;99.90
1405;DHT22;697;51.114;6.542;2024-03-22T08:34:30;15.30;99.90
1405;DHT22;697;51.114;6.542;2024-03-22T08:36:56;15.40;99.90
1405;DHT22;697;51.114;6.542;2024-03-22T08:39:22;15.50;99.90
1405;DHT22;697;51.114;6.542;2024-03-22T08:41:51;15.60;99.70
1405;DHT22;697;51.114;6.542;2024-03-22T08:44:18;15.70;99.30
1405;DHT22;697;51.114;6.542;2024-03-22T08:46:44;15.80;99.70
1405;DHT22;697;51.114;6.542;2024-03-22T08:49:11;15.90;99.10
1405;DHT22;697;51.114;6.542;2024-03-22T08:51:37;16.00;98.60
1405;DHT22;697;51.114;6.542;2024-03-22T08:54:04;16.10;99.00
1405;DHT22;697;51.114;6.542;2024-03-22T08:56:30;16.20;98.10
1405;DHT22;697;51.114;6.542;2024-03-22T08:58:58;16.30;98.10
1405;DHT22;697;51.114;6.542;2024-03-22T09:01:24;16.30;97.50
1405;DHT22;697;51.114;6.542;2024-03-22T09:03:52;16.30;97.10
1405;DHT22;697;51.114;6.542;2024-03-22T09:06:18;16.20;97.60
1405;DHT22;697;51.114;6.542;2024-03-22T09:08:45;16.20;97.00
1405;DHT22;697;51.114;6.542;2024-03-22T09:11:11;16.20;97.40
1405;DHT22;697;51.114;6.542;2024-03-22T09:13:38;16.20;97.60
1405;DHT22;697;51.114;6.542;2024-03-22T09:16:05;16.20;97.50
1405;DHT22;697;51.114;6.542;2024-03-22T09:18:32;16.20;97.40
1405;DHT22;697;51.114;6.542;2024-03-22T09:20:58;16.30;97.50
1405;DHT22;697;51.114;6.542;2024-03-22T09:23:25;16.30;97.60
1405;DHT22;697;51.114;6.542;2024-03-22T09:25:51;16.40;97.30
1405;DHT22;697;51.114;6.542;2024-03-22T09:28:18;16.40;96.90
1405;DHT22;697;51.114;6.542;2024-03-22T09:30:44;16.50;97.10
1405;DHT22;697;51.114;6.542;2024-03-22T09:33:13;16.60;97.20
1405;DHT22;697;51.114;6.542;2024-03-22T09:35:39;16.70;96.80
1405;DHT22;697;51.114;6.542;2024-03-22T09:38:06;16.70;96.70
1405;DHT22;697;51.114;6.542;2024-03-22T09:40:32;16.80;96.10
1405;DHT22;697;51.114;6.542;2024-03-22T09:43:02;16.70;96.40
1405;DHT22;697;51.114;6.542;2024-03-22T09:45:28;16.80;96.70
1405;DHT22;697;51.114;6.542;2024-03-22T09:47:57;16.90;96.50
1405;DHT22;697;51.114;6.542;2024-03-22T09:50:25;16.90;95.90
1405;DHT22;697;51.114;6.542;2024-03-22T09:52:52;16.90;95.70
1405;DHT22;697;51.114;6.542;2024-03-22T09:55:20;16.90;96.00
1405;DHT22;697;51.114;6.542;2024-03-22T09:57:49;16.80;95.90
1405;DHT22;697;51.114;6.542;2024-03-22T10:00:18;16.70;95.50
1405;DHT22;697;51.114;6.542;2024-03-22T10:02:46;16.70;95.40
1405;DHT22;697;51.114;6.542;2024-03-22T10:05:12;16.60;95.60
1405;DHT22;697;51.114;6.542;2024-03-22T10:07:41;16.60;95.70
1405;DHT22;697;51.114;6.542;2024-03-22T10:10:07;16.50;95.80
1405;DHT22;697;51.114;6.542;2024-03-22T10:12:34;16.50;96.00
1405;DHT22;697;51.114;6.542;2024-03-22T10:15:00;16.40;96.10
1405;DHT22;697;51.114;6.542;2024-03-22T10:17:27;16.40;96.10
1405;DHT22;697;51.114;6.542;2024-03-22T10:19:53;16.40;96.70
1405;DHT22;697;51.114;6.542;2024-03-22T10:22:20;16.50;96.80
1405;DHT22;697;51.114;6.542;2024-03-22T10:24:48;16.70;96.40
1405;DHT22;697;51.114;6.542;2024-03-22T10:27:15;16.70;95.70
1405;DHT22;697;51.114;6.542;2024-03-22T10:29:41;16.80;94.80
1405;DHT22;697;51.114;6.542;2024-03-22T10:32:08;16.80;95.60
1405;DHT22;697;51.114;6.542;2024-03-22T10:34:35;16.80;95.60
1405;DHT22;697;51.114;6.542;2024-03-22T10:37:03;16.90;95.80
1405;DHT22;697;51.114;6.542;2024-03-22T10:39:30;16.90;95.00
1405;DHT22;697;51.114;6.542;2024-03-22T10:41:58;16.90;95.30
1405;DHT22;697;51.114;6.542;2024-03-22T10:44:24;16.90;95.10
1405;DHT22;697;51.114;6.542;2024-03-22T10:46:54;16.80;94.90
1405;DHT22;697;51.114;6.542;2024-03-22T10:49:21;16.70;94.90
1405;DHT22;697;51.114;6.542;2024-03-22T10:51:51;16.70;94.90
1405;DHT22;697;51.114;6.542;2024-03-22T10:54:20;16.60;94.80
1405;DHT22;697;51.114;6.542;2024-03-22T10:56:48;16.60;95.30
1405;DHT22;697;51.114;6.542;2024-03-22T10:59:18;16.60;94.60
1405;DHT22;697;51.114;6.542;2024-03-22T11:01:46;16.60;94.70
1405;DHT22;697;51.114;6.542;2024-03-22T11:04:12;16.60;94.20
1405;DHT22;697;51.114;6.542;2024-03-22T11:06:39;16.60;94.60
1405;DHT22;697;51.114;6.542;2024-03-22T11:09:05;16.60;94.50
1405;DHT22;697;51.114;6.542;2024-03-22T11:11:35;16.70;93.90
1405;DHT22;697;51.114;6.542;2024-03-22T11:14:02;16.70;93.20
1405;DHT22;697;51.114;6.542;2024-03-22T11:16:31;16.70;93.10
1405;DHT22;697;51.114;6.542;2024-03-22T11:18:57;16.80;93.40
1405;DHT22;697;51.114;6.542;2024-03-22T11:21:24;16.80;94.10
1405;DHT22;697;51.114;6.542;2024-03-22T11:23:49;17.00;94.20
1405;DHT22;697;51.114;6.542;2024-03-22T11:26:16;17.20;94.00
1405;DHT22;697;51.114;6.542;2024-03-22T11:28:42;17.50;93.10
1405;DHT22;697;51.114;6.542;2024-03-22T11:31:09;17.60;92.10
1405;DHT22;697;51.114;6.542;2024-03-22T11:33:36;17.60;91.00
1405;DHT22;697;51.114;6.542;2024-03-22T11:36:04;17.70;91.20
1405;DHT22;697;51.114;6.542;2024-03-22T11:38:31;18.00;90.10
1405;DHT22;697;51.114;6.542;2024-03-22T11:40:59;18.30;90.70
1405;DHT22;697;51.114;6.542;2024-03-22T11:43:26;18.30;89.60
1405;DHT22;697;51.114;6.542;2024-03-22T11:45:54;18.50;90.00
1405;DHT22;697;51.114;6.542;2024-03-22T11:48:20;18.60;88.50
1405;DHT22;697;51.114;6.542;2024-03-22T11:50:49;18.60;87.50
1405;DHT22;697;51.114;6.542;2024-03-22T11:53:16;18.50;88.00
1405;DHT22;697;51.114;6.542;2024-03-22T11:55:43;18.40;87.20
1405;DHT22;697;51.114;6.542;2024-03-22T11:58:09;18.20;88.40
1405;DHT22;697;51.114;6.542;2024-03-22T12:00:36;18.10;88.10
1405;DHT22;697;51.114;6.542;2024-03-22T12:03:04;18.00;88.50
1405;DHT22;697;51.114;6.542;2024-03-22T12:05:32;17.90;88.30
1405;DHT22;697;51.114;6.542;2024-03-22T12:07:59;17.80;88.00
1405;DHT22;697;51.114;6.542;2024-03-22T12:10:26;17.90;89.20
1405;DHT22;697;51.114;6.542;2024-03-22T12:12:52;17.80;89.80
1405;DHT22;697;51.114;6.542;2024-03-22T12:15:19;17.80;88.90
1405;DHT22;697;51.114;6.542;2024-03-22T12:17:45;17.70;89.40
1405;DHT22;697;51.114;6.542;2024-03-22T12:20:12;17.70;89.80
1405;DHT22;697;51.114;6.542;2024-03-22T12:22:40;17.60;90.40
1405;DHT22;697;51.114;6.542;2024-03-22T12:25:09;17.60;90.80
1405;DHT22;697;51.114;6.542;2024-03-22T12:27:35;17.60;90.30
1405;DHT22;697;51.114;6.542;2024-03-22T12:30:02;17.50;90.20
1405;DHT22;697;51.114;6.542;2024-03-22T12:32:28;17.50;91.10
1405;DHT22;697;51.114;6.542;2024-03-22T12:34:55;17.40;91.10
1405;DHT22;697;51.114;6.542;2024-03-22T12:37:21;17.40;91.00
1405;DHT22;697;51.114;6.542;2024-03-22T12:39:48;17.40;91.30
1405;DHT22;697;51.114;6.542;2024-03-22T12:42:15;17.50;91.40
1405;DHT22;697;51.114;6.542;2024-03-22T12:44:42;17.60;91.50
1405;DHT22;697;51.114;6.542;2024-03-22T12:47:08;17.60;91.10
1405;DHT22;697;51.114;6.542;2024-03-22T12:49:35;17.80;90.90
1405;DHT22;697;51.114;6.542;2024-03-22T12:52:01;18.00;90.60
1405;DHT22;697;51.114;6.542;2024-03-22T12:54:29;18.10;89.80
1405;DHT22;697;51.114;6.542;2024-03-22T12:56:54;18.10;90.00
1405;DHT22;697;51.114;6.542;2024-03-22T12:59:23;18.00;88.90
1405;DHT22;697;51.114;6.542;2024-03-22T13:01:49;18.00;90.30
1405;DHT22;697;51.114;6.542;2024-03-22T13:04:17;18.00;89.80
1405;DHT22;697;51.114;6.542;2024-03-22T13:06:43;18.00;89.70
1405;DHT22;697;51.114;6.542;2024-03-22T13:09:10;17.90;91.10
1405;DHT22;697;51.114;6.542;2024-03-22T13:11:38;17.50;90.70
1405;DHT22;697;51.114;6.542;2024-03-22T13:14:06;17.20;92.10
1405;DHT22;697;51.114;6.542;2024-03-22T13:16:33;16.60;92.50
1405;DHT22;697;51.114;6.542;2024-03-22T13:19:00;16.40;92.80
1405;DHT22;697;51.114;6.542;2024-03-22T13:21:26;16.20;93.20
1405;DHT22;697;51.114;6.542;2024-03-22T13:23:53;16.10;93.50
1405;DHT22;697;51.114;6.542;2024-03-22T13:26:19;15.80;94.20
1405;DHT22;697;51.114;6.542;2024-03-22T13:28:46;15.80;94.80
1405;DHT22;697;51.114;6.542;2024-03-22T13:31:12;15.70;94.20
1405;DHT22;697;51.114;6.542;2024-03-22T13:33:40;15.60;94.60
1405;DHT22;697;51.114;6.542;2024-03-22T13:36:06;15.50;94.50
1405;DHT22;697;51.114;6.542;2024-03-22T13:38:33;15.20;95.10
1405;DHT22;697;51.114;6.542;2024-03-22T13:40:59;14.90;95.80
1405;DHT22;697;51.114;6.542;2024-03-22T13:43:26;14.80;96.40
1405;DHT22;697;51.114;6.542;2024-03-22T13:45:53;14.70;96.70
1405;DHT22;697;51.114;6.542;2024-03-22T13:48:21;14.80;96.90
1405;DHT22;697;51.114;6.542;2024-03-22T13:50:51;14.80;97.20
1405;DHT22;697;51.114;6.542;2024-03-22T13:53:18;14.80;97.40
1405;DHT22;697;51.114;6.542;2024-03-22T13:55:44;14.80;97.30
1405;DHT22;697;51.114;6.542;2024-03-22T13:58:11;14.90;97.30
1405;DHT22;697;51.114;6.542;2024-03-22T14:00:38;15.10;97.30
1405;DHT22;697;51.114;6.542;2024-03-22T14:03:05;15.10;96.90
1405;DHT22;697;51.114;6.542;2024-03-22T14:05:31;15.20;96.70
1405;DHT22;697;51.114;6.542;2024-03-22T14:07:59;15.20;96.40
1405;DHT22;697;51.114;6.542;2024-03-22T14:10:25;15.20;96.20
1405;DHT22;697;51.114;6.542;2024-03-22T14:12:55;15.30;96.20
1405;DHT22;697;51.114;6.542;2024-03-22T14:15:21;15.30;96.20
1405;DHT22;697;51.114;6.542;2024-03-22T14:17:50;15.40;96.20
1405;DHT22;697;51.114;6.542;2024-03-22T14:20:16;15.40;95.70
1405;DHT22;697;51.114;6.542;2024-03-22T14:22:43;15.40;96.00
1405;DHT22;697;51.114;6.542;2024-03-22T14:25:10;15.40;96.30
1405;DHT22;697;51.114;6.542;2024-03-22T14:27:37;15.30;96.30
1405;DHT22;697;51.114;6.542;2024-03-22T14:30:05;15.30;96.40
1405;DHT22;697;51.114;6.542;2024-03-22T14:32:34;15.20;96.20
1405;DHT22;697;51.114;6.542;2024-03-22T14:35:00;15.20;96.50
1405;DHT22;697;51.114;6.542;2024-03-22T14:37:27;15.10;96.40
1405;DHT22;697;51.114;6.542;2024-03-22T14:39:53;15.20;96.90
1405;DHT22;697;51.114;6.542;2024-03-22T14:42:21;15.20;97.10
1405;DHT22;697;51.114;6.542;2024-03-22T14:44:47;15.20;97.50
1405;DHT22;697;51.114;6.542;2024-03-22T14:47:13;15.30;97.90
1405;DHT22;697;51.114;6.542;2024-03-22T14:49:39;15.20;97.80
1405;DHT22;697;51.114;6.542;2024-03-22T14:52:07;15.30;98.00
1405;DHT22;697;51.114;6.542;2024-03-22T14:54:33;15.30;97.90
1405;DHT22;697;51.114;6.542;2024-03-22T14:57:00;15.30;97.60
1405;DHT22;697;51.114;6.542;2024-03-22T14:59:29;15.20;97.70
1405;DHT22;697;51.114;6.542;2024-03-22T15:01:55;15.10;97.90
1405;DHT22;697;51.114;6.542;2024-03-22T15:04:22;15.00;98.00
1405;DHT22;697;51.114;6.542;2024-03-22T15:06:49;15.00;98.40
1405;DHT22;697;51.114;6.542;2024-03-22T15:09:17;15.00;98.60
1405;DHT22;697;51.114;6.542;2024-03-22T15:11:44;14.90;98.60
1405;DHT22;697;51.114;6.542;2024-03-22T15:14:10;14.80;98.20
1405;DHT22;697;51.114;6.542;2024-03-22T15:16:38;14.80;98.60
1405;DHT22;697;51.114;6.542;2024-03-22T15:19:04;14.70;98.90
1405;DHT22;697;51.114;6.542;2024-03-22T15:21:31;14.70;99.60
1405;DHT22;697;51.114;6.542;2024-03-22T15:23:57;14.50;99.90
1405;DHT22;697;51.114;6.542;2024-03-22T15:26:24;14.40;99.90
1405;DHT22;697;51.114;6.542;2024-03-22T15:28:50;14.30;99.90
1405;DHT22;697;51.114;6.542;2024-03-22T15:31:16;14.30;99.90
1405;DHT22;697;51.114;6.542;2024-03-22T15:33:44;14.30;99.90
1405;DHT22;697;51.114;6.542;2024-03-22T15:36:11;14.30;99.90
1405;DHT22;697;51.114;6.542;2024-03-22T15:38:37;14.30;99.90
1405;DHT22;697;51.114;6.542;2024-03-22T15:41:04;14.30;99.90
1405;DHT22;697;51.114;6.542;2024-03-22T15:43:29;14.30;99.90
1405;DHT22;697;51.114;6.542;2024-03-22T15:45:56;14.20;99.90
1405;DHT22;697;51.114;6.542;2024-03-22T15:48:22;14.10;99.90
1405;DHT22;697;51.114;6.542;2024-03-22T15:50:51;14.10;99.90
1405;DHT22;697;51.114;6.542;2024-03-22T15:53:17;14.00;99.90
1405;DHT22;697;51.114;6.542;2024-03-22T15:55:44;14.00;99.90
1405;DHT22;697;51.114;6.542;2024-03-22T15:58:10;14.00;99.90
1405;DHT22;697;51.114;6.542;2024-03-22T16:00:37;14.00;99.90
1405;DHT22;697;51.114;6.542;2024-03-22T16:03:03;14.00;99.90
1405;DHT22;697;51.114;6.542;2024-03-22T16:05:30;14.00;99.90
1405;DHT22;697;51.114;6.542;2024-03-22T16:07:57;14.00;99.90
1405;DHT22;697;51.114;6.542;2024-03-22T16:10:24;14.00;99.90
1405;DHT22;697;51.114;6.542;2024-03-22T16:12:50;14.10;99.90